Time;durP1;ratioP1;P1;durP2;ratioP2;P2;SDS_P1;SDS_P2;PMS_P1;PMS_P2;Temp;Humidity;BMP_temperature;BMP_pressure;BME280_temperature;BME280_humidity;BME280_pressure;Samples;Min_cycle;Max_cycle;Signal;HPM_P1;HPM_P2
2021/09/02 00:01:56;;;;;;;8.07;5.60;;;21.30;53.90;;;;;;5023180;28;20821;-47
2021/09/02 00:04:23;;;;;;;5.83;5.33;;;21.20;53.80;;;;;;5027770;28;20193;-47
2021/09/02 00:06:49;;;;;;;5.30;4.80;;;21.30;54.20;;;;;;5026241;28;20506;-46
2021/09/02 00:09:15;;;;;;;4.90;4.50;;;21.30;55.00;;;;;;5017657;28;20908;-46
2021/09/02 00:11:40;;;;;;;5.43;4.93;;;21.30;54.20;;;;;;5023057;28;20773;-51
2021/09/02 00:14:06;;;;;;;5.13;4.63;;;21.20;53.70;;;;;;5023471;28;20304;-50
2021/09/02 00:16:31;;;;;;;6.33;5.60;;;21.20;53.40;;;;;;5020850;28;20256;-50
2021/09/02 00:18:57;;;;;;;4.70;4.30;;;21.20;53.70;;;;;;5030778;28;20352;-50
2021/09/02 00:21:23;;;;;;;5.93;5.10;;;21.20;54.30;;;;;;5024813;28;20209;-50
2021/09/02 00:23:48;;;;;;;5.90;5.33;;;21.20;54.00;;;;;;5034239;28;20188;-49
2021/09/02 00:26:14;;;;;;;6.13;5.53;;;21.10;53.90;;;;;;5033051;28;20231;-50
2021/09/02 00:28:40;;;;;;;6.03;5.47;;;21.10;53.80;;;;;;5030090;28;20275;-49
2021/09/02 00:31:06;;;;;;;5.03;4.63;;;21.10;53.80;;;;;;5032900;28;20294;-49
2021/09/02 00:33:31;;;;;;;8.17;5.10;;;21.10;54.40;;;;;;5016970;28;20842;-49
2021/09/02 00:35:57;;;;;;;5.87;5.37;;;21.00;55.10;;;;;;5035395;28;20209;-50
2021/09/02 00:38:22;;;;;;;7.70;5.37;;;21.00;54.10;;;;;;5021753;28;20716;-49
2021/09/02 00:40:48;;;;;;;5.80;5.20;;;21.00;53.70;;;;;;5016602;28;20236;-46
2021/09/02 00:43:14;;;;;;;9.63;5.20;;;20.90;53.50;;;;;;5018858;28;20204;-50
2021/09/02 00:45:39;;;;;;;6.60;6.00;;;20.70;54.00;;;;;;5019458;28;20228;-47
2021/09/02 00:48:05;;;;;;;5.80;5.30;;;20.70;54.80;;;;;;5018131;28;20207;-48
2021/09/02 00:50:32;;;;;;;5.60;5.10;;;20.70;55.10;;;;;;5018299;28;20282;-50
2021/09/02 00:52:59;;;;;;;6.17;5.20;;;20.70;54.50;;;;;;5015864;28;20204;-50
2021/09/02 00:55:24;;;;;;;4.83;4.43;;;20.60;53.90;;;;;;5023746;28;20448;-49
2021/09/02 00:57:50;;;;;;;6.40;5.80;;;20.60;53.80;;;;;;5025587;28;20510;-49
2021/09/02 01:00:17;;;;;;;6.80;5.20;;;20.50;54.20;;;;;;5027883;28;20650;-50
2021/09/02 01:02:45;;;;;;;6.87;5.60;;;20.40;53.90;;;;;;5020523;28;20562;-50
2021/09/02 01:05:16;;;;;;;5.13;4.63;;;20.40;54.90;;;;;;5027470;28;20495;-49
2021/09/02 01:07:42;;;;;;;7.10;5.13;;;20.30;54.20;;;;;;5022575;28;20433;-49
2021/09/02 01:10:09;;;;;;;6.63;5.30;;;20.20;54.40;;;;;;5024503;28;20486;-50
2021/09/02 01:12:44;;;;;;;7.40;5.23;;;20.00;54.60;;;;;;5029638;28;20444;-50
2021/09/02 01:15:21;;;;;;;5.67;5.17;;;19.90;54.90;;;;;;5024252;28;20443;-51
2021/09/02 01:17:48;;;;;;;6.70;6.00;;;19.90;55.30;;;;;;5019595;28;20509;-49
2021/09/02 01:20:20;;;;;;;6.80;5.17;;;19.90;55.20;;;;;;5013593;28;20467;-46
2021/09/02 01:22:46;;;;;;;6.80;5.27;;;19.80;55.20;;;;;;5024113;28;20567;-49
2021/09/02 01:25:14;;;;;;;7.87;6.07;;;19.70;55.10;;;;;;5028955;28;20493;-49
2021/09/02 01:27:41;;;;;;;8.10;5.47;;;19.70;55.10;;;;;;5017683;28;20441;-46
2021/09/02 01:30:13;;;;;;;5.87;4.80;;;19.60;55.10;;;;;;5031482;28;20444;-48
2021/09/02 01:32:41;;;;;;;6.03;5.33;;;19.60;55.00;;;;;;5022358;28;20954;-50
2021/09/02 01:35:09;;;;;;;5.57;4.97;;;19.50;55.30;;;;;;5029088;28;20453;-47
2021/09/02 01:37:42;;;;;;;5.90;5.40;;;19.40;56.00;;;;;;5024515;28;20497;-49
2021/09/02 01:40:11;;;;;;;6.30;5.23;;;19.50;56.90;;;;;;5022400;28;20452;-49
2021/09/02 01:42:37;;;;;;;7.47;5.17;;;19.60;56.60;;;;;;5015450;28;22096;-50
2021/09/02 01:45:03;;;;;;;5.40;4.90;;;19.60;55.50;;;;;;5021584;28;20479;-48
2021/09/02 01:47:29;;;;;;;5.27;4.77;;;19.60;55.30;;;;;;5032873;28;20653;-45
2021/09/02 01:50:05;;;;;;;6.57;4.87;;;19.60;56.20;;;;;;5023953;28;20440;-49
2021/09/02 01:52:30;;;;;;;4.83;4.33;;;19.70;56.30;;;;;;5033127;28;20195;-49
2021/09/02 01:54:56;;;;;;;6.03;5.00;;;19.70;55.70;;;;;;5023679;28;20452;-47
2021/09/02 01:57:22;;;;;;;6.03;5.43;;;19.80;56.20;;;;;;5011885;28;20890;-49
2021/09/02 01:59:47;;;;;;;4.93;4.30;;;19.90;56.60;;;;;;5021006;28;20194;-47
2021/09/02 02:02:13;;;;;;;8.03;6.43;;;20.00;56.50;;;;;;5032321;28;20216;-46
2021/09/02 02:04:38;;;;;;;5.80;4.53;;;20.10;56.20;;;;;;5027451;28;20221;-50
2021/09/02 02:07:04;;;;;;;5.63;4.80;;;20.10;55.80;;;;;;5022372;28;20212;-47
2021/09/02 02:09:30;;;;;;;6.40;5.30;;;20.20;55.20;;;;;;5021405;28;20189;-46
2021/09/02 02:11:55;;;;;;;5.70;5.10;;;20.10;54.20;;;;;;5020958;28;20227;-49
2021/09/02 02:14:21;;;;;;;6.53;5.10;;;20.00;54.30;;;;;;5011017;28;20209;-49
2021/09/02 02:16:46;;;;;;;8.37;4.40;;;20.00;54.40;;;;;;5014589;28;20194;-45
2021/09/02 02:19:12;;;;;;;6.63;5.60;;;19.90;54.90;;;;;;5038143;28;20271;-50
2021/09/02 02:21:38;;;;;;;6.23;4.60;;;20.00;55.20;;;;;;5025566;28;20193;-49
2021/09/02 02:24:04;;;;;;;4.57;4.03;;;20.00;55.20;;;;;;5013656;28;20203;-46
2021/09/02 02:26:29;;;;;;;4.60;4.20;;;20.00;54.90;;;;;;5021873;28;20232;-47
2021/09/02 02:28:55;;;;;;;6.43;4.90;;;20.10;55.40;;;;;;5018247;28;20196;-47
2021/09/02 02:31:21;;;;;;;5.90;5.30;;;20.10;55.50;;;;;;5033463;28;20479;-46
2021/09/02 02:33:46;;;;;;;11.70;5.57;;;20.20;54.90;;;;;;5020029;28;20252;-45
2021/09/02 02:36:12;;;;;;;5.50;4.90;;;20.20;54.20;;;;;;5037285;28;20208;-46
2021/09/02 02:38:38;;;;;;;5.37;4.87;;;20.20;54.10;;;;;;5029138;28;20200;-46
2021/09/02 02:41:03;;;;;;;5.93;4.93;;;20.20;54.80;;;;;;5027623;28;20275;-46
2021/09/02 02:43:29;;;;;;;5.87;4.43;;;20.10;54.70;;;;;;5020409;28;20201;-48
2021/09/02 02:45:57;;;;;;;5.17;4.77;;;20.10;54.80;;;;;;5023840;28;20228;-46
2021/09/02 02:48:23;;;;;;;5.40;4.47;;;20.10;54.20;;;;;;5020471;28;20201;-45
2021/09/02 02:50:48;;;;;;;5.10;4.60;;;20.10;53.70;;;;;;5021668;28;20447;-46
2021/09/02 02:53:14;;;;;;;5.00;4.60;;;20.10;53.50;;;;;;5016550;28;20197;-45
2021/09/02 02:55:39;;;;;;;4.87;4.37;;;20.00;53.20;;;;;;5021360;28;20208;-45
2021/09/02 02:58:05;;;;;;;6.00;4.73;;;20.00;53.50;;;;;;5027216;28;20189;-47
2021/09/02 03:00:30;;;;;;;6.57;4.53;;;19.40;54.00;;;;;;5020589;28;20199;-49
2021/09/02 03:02:56;;;;;;;4.63;4.23;;;19.40;55.40;;;;;;5024859;28;20200;-49
2021/09/02 03:05:22;;;;;;;7.33;4.17;;;19.50;55.60;;;;;;5025131;28;20228;-50
2021/09/02 03:07:47;;;;;;;5.43;4.93;;;19.50;55.10;;;;;;5032371;28;20193;-49
2021/09/02 03:10:13;;;;;;;5.07;4.37;;;19.60;55.60;;;;;;5024243;28;20649;-50
2021/09/02 03:12:38;;;;;;;6.30;4.70;;;19.60;56.00;;;;;;5015842;28;20253;-47
2021/09/02 03:15:07;;;;;;;6.30;5.43;;;19.70;54.40;;;;;;5021928;28;20197;-49
2021/09/02 03:17:34;;;;;;;5.83;4.90;;;19.80;54.00;;;;;;5036323;28;20619;-49
2021/09/02 03:20:00;;;;;;;5.10;4.70;;;19.80;53.90;;;;;;5035859;28;20447;-49
2021/09/02 03:22:25;;;;;;;6.83;4.90;;;19.80;54.30;;;;;;5041941;28;20976;-50
2021/09/02 03:24:51;;;;;;;5.00;4.50;;;19.80;54.00;;;;;;5027725;28;21143;-45
2021/09/02 03:27:17;;;;;;;6.17;5.40;;;19.80;54.10;;;;;;5028542;28;20193;-46
2021/09/02 03:29:43;;;;;;;5.57;5.00;;;19.80;54.70;;;;;;5026512;28;20198;-48
2021/09/02 03:32:08;;;;;;;5.03;4.53;;;19.80;54.40;;;;;;5030874;28;20970;-49
2021/09/02 03:34:34;;;;;;;4.83;4.43;;;19.80;53.80;;;;;;5028125;28;20208;-49
2021/09/02 03:37:00;;;;;;;5.20;4.13;;;19.80;54.00;;;;;;5025583;28;20561;-49
2021/09/02 03:39:25;;;;;;;4.50;4.10;;;19.70;54.20;;;;;;5027177;28;20224;-50
2021/09/02 03:41:51;;;;;;;5.37;4.50;;;19.80;54.50;;;;;;5022289;28;20194;-49
2021/09/02 03:44:16;;;;;;;5.00;4.20;;;19.80;54.90;;;;;;5027187;28;20200;-46
2021/09/02 03:46:42;;;;;;;6.80;4.00;;;19.80;55.00;;;;;;5028220;28;20716;-45
2021/09/02 03:49:08;;;;;;;4.93;4.37;;;19.90;54.40;;;;;;5029159;28;20203;-46
2021/09/02 03:51:33;;;;;;;7.83;4.73;;;19.90;54.60;;;;;;5024717;28;20194;-50
2021/09/02 03:53:59;;;;;;;5.27;4.80;;;19.90;54.40;;;;;;5033759;28;20251;-49
2021/09/02 03:56:25;;;;;;;6.70;4.67;;;19.90;53.40;;;;;;5015427;28;20200;-47
2021/09/02 03:58:51;;;;;;;4.63;4.23;;;19.90;53.70;;;;;;5019721;28;20204;-46
2021/09/02 04:01:18;;;;;;;4.47;4.07;;;19.90;53.90;;;;;;5021850;28;20193;-49
2021/09/02 04:03:43;;;;;;;4.80;4.33;;;19.90;53.10;;;;;;5031753;28;20453;-45
2021/09/02 04:06:09;;;;;;;3.93;3.50;;;19.90;52.60;;;;;;5018259;28;20491;-46
2021/09/02 04:08:35;;;;;;;4.87;4.27;;;19.90;53.70;;;;;;5032556;28;20197;-48
2021/09/02 04:11:00;;;;;;;4.43;3.90;;;19.90;53.70;;;;;;5028516;28;20204;-50
2021/09/02 04:13:26;;;;;;;5.47;4.70;;;19.80;52.20;;;;;;5024327;28;20192;-50
2021/09/02 04:15:51;;;;;;;6.93;4.43;;;19.70;51.80;;;;;;5021733;28;20704;-45
2021/09/02 04:18:17;;;;;;;5.33;4.33;;;19.50;51.80;;;;;;5031585;28;20232;-45
2021/09/02 04:20:43;;;;;;;6.47;4.77;;;19.30;52.60;;;;;;5026905;28;20196;-48
2021/09/02 04:23:09;;;;;;;6.47;4.50;;;19.30;53.80;;;;;;5017702;28;20185;-50
2021/09/02 04:25:34;;;;;;;7.43;5.20;;;19.30;54.40;;;;;;5027439;28;20229;-48
2021/09/02 04:28:00;;;;;;;5.30;4.80;;;19.30;54.10;;;;;;5025292;28;20201;-45
2021/09/02 04:30:26;;;;;;;4.63;4.23;;;19.30;53.60;;;;;;5020595;28;20273;-47
2021/09/02 04:32:51;;;;;;;7.57;5.70;;;19.30;53.30;;;;;;5021031;28;20185;-49
2021/09/02 04:35:17;;;;;;;4.97;4.57;;;19.30;53.40;;;;;;5023548;28;20891;-50
2021/09/02 04:37:45;;;;;;;6.40;4.93;;;19.40;54.20;;;;;;5027695;28;20213;-45
2021/09/02 04:40:12;;;;;;;13.60;5.20;;;19.40;54.70;;;;;;5017389;28;20205;-50
2021/09/02 04:42:37;;;;;;;8.53;4.90;;;19.40;54.90;;;;;;5031332;28;20482;-46
2021/09/02 04:45:05;;;;;;;4.73;4.33;;;19.50;55.00;;;;;;5033100;28;20523;-46
2021/09/02 04:47:30;;;;;;;7.70;4.87;;;19.50;55.20;;;;;;5018900;28;20579;-45
2021/09/02 04:49:56;;;;;;;5.17;4.73;;;19.50;55.20;;;;;;5027460;28;20444;-47
2021/09/02 04:52:22;;;;;;;5.37;4.43;;;19.50;54.60;;;;;;5028118;28;20190;-47
2021/09/02 04:54:47;;;;;;;7.93;5.10;;;19.50;54.40;;;;;;5030441;28;20204;-49
2021/09/02 04:57:13;;;;;;;5.53;5.03;;;19.50;55.00;;;;;;5022101;28;20200;-45
2021/09/02 04:59:39;;;;;;;7.27;4.90;;;19.50;54.90;;;;;;5027238;28;20212;-46
2021/09/02 05:02:04;;;;;;;5.20;4.73;;;19.50;54.20;;;;;;5025048;28;20196;-45
2021/09/02 05:04:30;;;;;;;8.93;5.23;;;19.50;53.60;;;;;;5020198;28;20197;-45
2021/09/02 05:06:55;;;;;;;6.07;4.47;;;19.50;54.20;;;;;;5031197;28;20242;-49
2021/09/02 05:09:21;;;;;;;6.50;5.37;;;19.40;54.60;;;;;;5023781;28;20200;-47
2021/09/02 05:11:47;;;;;;;7.07;6.37;;;19.50;53.90;;;;;;5026681;28;20634;-45
2021/09/02 05:14:12;;;;;;;5.60;5.10;;;19.40;53.20;;;;;;5025277;28;20205;-47
2021/09/02 05:16:38;;;;;;;8.17;5.20;;;19.30;52.90;;;;;;5022856;28;20189;-48
2021/09/02 05:19:04;;;;;;;10.73;5.80;;;19.10;56.60;;;;;;5038500;28;20264;-50
2021/09/02 05:21:29;;;;;;;5.07;4.40;;;19.20;56.10;;;;;;5021712;28;20197;-45
2021/09/02 05:23:55;;;;;;;5.13;4.63;;;19.20;55.00;;;;;;5029276;28;20642;-46
2021/09/02 05:26:21;;;;;;;5.73;5.20;;;19.30;54.40;;;;;;5020268;28;20220;-45
2021/09/02 05:28:46;;;;;;;4.60;4.20;;;19.40;54.00;;;;;;5013902;28;20714;-50
2021/09/02 05:31:12;;;;;;;9.03;5.63;;;19.40;53.60;;;;;;5019535;28;20193;-48
2021/09/02 05:33:37;;;;;;;9.80;5.60;;;19.60;54.20;;;;;;5018363;28;20193;-49
2021/09/02 05:36:03;;;;;;;4.63;4.20;;;19.70;53.70;;;;;;5024301;28;20192;-45
2021/09/02 05:38:29;;;;;;;4.93;4.43;;;19.70;53.10;;;;;;5026803;28;20286;-47
2021/09/02 05:40:55;;;;;;;6.00;5.47;;;19.70;52.80;;;;;;5015905;28;20447;-46
2021/09/02 05:43:21;;;;;;;5.70;5.10;;;19.60;52.50;;;;;;5014768;28;20218;-50
2021/09/02 05:45:47;;;;;;;6.80;6.20;;;19.60;52.90;;;;;;5021929;28;20478;-49
2021/09/02 05:48:12;;;;;;;6.17;5.30;;;19.60;53.00;;;;;;5024943;28;20486;-50
2021/09/02 05:50:38;;;;;;;5.07;4.53;;;19.60;53.10;;;;;;5028408;28;20201;-49
2021/09/02 05:53:04;;;;;;;6.57;5.97;;;19.70;53.00;;;;;;5022535;28;20573;-51
2021/09/02 05:55:29;;;;;;;8.73;5.50;;;19.60;52.80;;;;;;5026110;28;20659;-49
2021/09/02 05:57:55;;;;;;;5.50;5.00;;;19.70;53.00;;;;;;5022011;28;20634;-46
2021/09/02 06:00:20;;;;;;;8.63;6.07;;;19.70;52.90;;;;;;5023803;28;20240;-51
2021/09/02 06:02:46;;;;;;;7.60;5.70;;;19.80;53.00;;;;;;5023233;28;20211;-51
2021/09/02 06:05:12;;;;;;;5.97;5.47;;;19.80;53.00;;;;;;5027347;28;20236;-48
2021/09/02 06:07:37;;;;;;;6.60;5.53;;;19.90;53.00;;;;;;5014337;28;20566;-49
2021/09/02 06:10:03;;;;;;;6.63;5.97;;;19.90;53.00;;;;;;5022475;28;20339;-46
2021/09/02 06:12:29;;;;;;;7.93;5.67;;;20.00;53.00;;;;;;5018929;28;20205;-50
2021/09/02 06:14:55;;;;;;;7.10;6.07;;;20.00;52.90;;;;;;5026258;28;20450;-49
2021/09/02 06:17:20;;;;;;;7.63;5.40;;;20.10;53.00;;;;;;5035113;28;20200;-50
2021/09/02 06:19:46;;;;;;;8.70;5.87;;;20.20;53.10;;;;;;5027805;28;20300;-47
2021/09/02 06:22:11;;;;;;;8.77;6.27;;;20.30;53.10;;;;;;5017990;28;20197;-48
2021/09/02 06:24:37;;;;;;;5.77;5.27;;;20.30;53.00;;;;;;5022900;28;20186;-49
2021/09/02 06:27:03;;;;;;;6.70;5.43;;;20.40;52.90;;;;;;5026805;28;20641;-50
2021/09/02 06:29:28;;;;;;;7.40;6.70;;;20.50;52.80;;;;;;5041114;28;20190;-47
2021/09/02 06:31:55;;;;;;;7.40;5.63;;;20.60;52.80;;;;;;5030040;28;20215;-46
2021/09/02 06:34:21;;;;;;;6.70;5.53;;;20.70;52.60;;;;;;5022600;28;20196;-50
2021/09/02 06:36:46;;;;;;;9.20;5.80;;;20.90;52.60;;;;;;5027417;28;20427;-51
2021/09/02 06:39:12;;;;;;;6.73;5.60;;;21.00;52.40;;;;;;5045569;28;20205;-47
2021/09/02 06:41:37;;;;;;;6.20;5.60;;;21.10;52.40;;;;;;5043154;28;20865;-48
2021/09/02 06:44:03;;;;;;;6.73;6.00;;;21.10;52.30;;;;;;5050743;28;20192;-46
2021/09/02 06:46:29;;;;;;;8.23;5.70;;;21.20;52.40;;;;;;5051243;28;20224;-50
2021/09/02 06:48:55;;;;;;;6.57;5.90;;;21.30;52.30;;;;;;5032455;28;20219;-47
2021/09/02 06:51:21;;;;;;;6.47;5.80;;;21.40;52.00;;;;;;5027562;28;20197;-45
2021/09/02 06:53:47;;;;;;;6.73;5.73;;;21.50;51.90;;;;;;5029100;28;20197;-47
2021/09/02 06:56:12;;;;;;;6.70;5.93;;;21.60;51.70;;;;;;5032438;28;20507;-47
2021/09/02 06:58:38;;;;;;;7.03;6.33;;;21.70;51.50;;;;;;5050539;28;20239;-46
2021/09/02 07:01:04;;;;;;;7.47;6.67;;;21.80;51.90;;;;;;5051314;28;20443;-50
2021/09/02 07:03:29;;;;;;;5.83;5.33;;;22.00;51.60;;;;;;5050896;28;20203;-49
2021/09/02 07:05:55;;;;;;;7.30;6.60;;;22.10;51.50;;;;;;5046629;28;20601;-48
2021/09/02 07:08:20;;;;;;;9.93;7.60;;;22.20;51.60;;;;;;5050874;28;20200;-45
2021/09/02 07:10:46;;;;;;;7.23;6.47;;;22.30;51.40;;;;;;5051238;28;20192;-47
2021/09/02 07:13:12;;;;;;;7.70;6.87;;;22.40;51.10;;;;;;5049178;28;20195;-49
2021/09/02 07:15:37;;;;;;;7.10;6.33;;;22.50;51.20;;;;;;5030535;28;20193;-50
2021/09/02 07:18:03;;;;;;;6.50;5.80;;;22.70;51.40;;;;;;5045304;28;20236;-46
2021/09/02 07:20:30;;;;;;;7.40;6.20;;;22.80;51.30;;;;;;5038110;28;20203;-46
2021/09/02 07:22:56;;;;;;;8.20;7.40;;;22.90;50.80;;;;;;5038232;28;20225;-51
2021/09/02 07:25:22;;;;;;;7.50;6.70;;;22.70;50.70;;;;;;5041447;28;20577;-46
2021/09/02 07:27:48;;;;;;;8.87;6.47;;;22.70;51.30;;;;;;5027984;28;20201;-46
2021/09/02 07:30:13;;;;;;;9.17;8.27;;;22.80;51.20;;;;;;5034062;28;20438;-50
2021/09/02 07:32:39;;;;;;;7.80;6.77;;;22.90;50.90;;;;;;5022060;28;20221;-47
2021/09/02 07:35:05;;;;;;;7.57;6.87;;;23.10;50.60;;;;;;5028555;28;20203;-48
2021/09/02 07:37:31;;;;;;;7.30;6.50;;;23.10;50.50;;;;;;5015274;28;20598;-47
2021/09/02 07:39:57;;;;;;;7.33;6.67;;;22.90;50.70;;;;;;5023594;28;20424;-49
2021/09/02 07:42:22;;;;;;;7.70;6.30;;;22.90;50.80;;;;;;5025773;28;20276;-46
2021/09/02 07:44:48;;;;;;;7.07;6.37;;;22.80;50.60;;;;;;5023630;28;21038;-47
2021/09/02 07:47:14;;;;;;;8.60;6.47;;;22.80;50.80;;;;;;5028271;28;20201;-46
2021/09/02 07:49:40;;;;;;;7.40;6.70;;;22.80;50.80;;;;;;5026089;28;20189;-46
2021/09/02 07:52:06;;;;;;;7.43;6.73;;;22.60;50.60;;;;;;5026196;28;21296;-47
2021/09/02 07:54:32;;;;;;;7.00;6.30;;;22.80;50.70;;;;;;5032513;28;20193;-46
2021/09/02 07:56:57;;;;;;;6.93;6.10;;;22.70;50.70;;;;;;5022883;28;20194;-47
2021/09/02 07:59:23;;;;;;;7.77;6.97;;;22.80;51.60;;;;;;5024190;28;20197;-45
2021/09/02 08:01:48;;;;;;;7.13;6.27;;;23.10;50.90;;;;;;5028924;28;20643;-46
2021/09/02 08:04:14;;;;;;;8.50;6.30;;;23.30;50.90;;;;;;5028104;28;20194;-46
2021/09/02 08:06:40;;;;;;;7.37;6.67;;;23.50;50.60;;;;;;5023778;28;20592;-46
2021/09/02 08:09:06;;;;;;;7.63;6.57;;;23.70;50.40;;;;;;5024093;28;20277;-49
2021/09/02 08:11:31;;;;;;;6.53;6.03;;;23.70;49.90;;;;;;5021941;28;20197;-46
2021/09/02 08:13:58;;;;;;;8.00;6.20;;;23.60;50.00;;;;;;5028199;28;20248;-47
2021/09/02 08:16:24;;;;;;;7.20;6.53;;;23.60;51.10;;;;;;5022939;28;20236;-46
2021/09/02 08:18:50;;;;;;;9.90;6.00;;;23.90;51.30;;;;;;5022203;28;20832;-47
2021/09/02 08:21:17;;;;;;;6.13;5.53;;;24.00;49.70;;;;;;5024098;28;20582;-46
2021/09/02 08:23:42;;;;;;;6.80;5.80;;;24.10;49.40;;;;;;5029396;28;20198;-46
2021/09/02 08:26:08;;;;;;;7.73;6.37;;;24.10;49.10;;;;;;5018360;28;20499;-46
2021/09/02 08:28:34;;;;;;;9.20;5.90;;;24.30;50.90;;;;;;5019218;28;20189;-46
2021/09/02 08:30:59;;;;;;;6.60;5.30;;;24.40;48.80;;;;;;5029467;28;20198;-49
2021/09/02 08:33:25;;;;;;;7.07;6.40;;;24.50;48.80;;;;;;5025999;28;20196;-51
2021/09/02 08:35:51;;;;;;;6.40;5.80;;;24.70;48.40;;;;;;5027310;28;20343;-50
2021/09/02 08:38:18;;;;;;;6.57;5.97;;;24.80;48.60;;;;;;5026017;28;20570;-52
2021/09/02 08:40:44;;;;;;;6.43;5.80;;;24.90;48.20;;;;;;5022394;28;20954;-51
2021/09/02 08:43:10;;;;;;;6.60;5.70;;;24.90;47.80;;;;;;5023931;28;20446;-51
2021/09/02 08:45:36;;;;;;;6.80;6.20;;;24.60;48.20;;;;;;5024422;28;20481;-51
2021/09/02 08:48:03;;;;;;;6.17;5.60;;;24.40;48.60;;;;;;5025612;28;20940;-49
2021/09/02 08:50:35;;;;;;;6.37;5.70;;;24.30;48.40;;;;;;5024062;28;20201;-51
2021/09/02 08:53:01;;;;;;;6.23;5.73;;;24.10;48.30;;;;;;5017967;28;20499;-48
2021/09/02 08:55:28;;;;;;;9.13;6.10;;;23.90;49.80;;;;;;5022647;28;20517;-49
2021/09/02 08:57:54;;;;;;;6.20;5.23;;;24.20;49.70;;;;;;5022360;28;20939;-47
2021/09/02 09:00:22;;;;;;;6.10;5.50;;;24.50;49.90;;;;;;5022122;28;20451;-51
2021/09/02 09:02:55;;;;;;;6.10;5.50;;;24.90;48.80;;;;;;5018850;28;20805;-46
2021/09/02 09:05:20;;;;;;;5.67;5.17;;;24.50;47.40;;;;;;5029034;28;20519;-50
2021/09/02 09:07:49;;;;;;;5.80;5.30;;;24.00;49.00;;;;;;5030349;28;20872;-50
2021/09/02 09:10:23;;;;;;;6.40;5.50;;;23.90;48.90;;;;;;5022673;28;20190;-50
2021/09/02 09:12:58;;;;;;;6.30;5.70;;;24.10;49.50;;;;;;5025751;28;20489;-50
2021/09/02 09:15:29;;;;;;;7.10;5.70;;;24.30;49.60;;;;;;5021157;28;21153;-49
2021/09/02 09:18:11;;;;;;;5.13;4.63;;;24.70;48.40;;;;;;5024989;28;20559;-49
2021/09/02 09:20:37;;;;;;;5.90;5.07;;;24.90;48.30;;;;;;5021298;28;20798;-46
2021/09/02 09:23:02;;;;;;;5.77;5.13;;;25.40;47.20;;;;;;5021219;28;20421;-48
2021/09/02 09:25:29;;;;;;;5.30;4.90;;;25.50;45.50;;;;;;5016898;28;20299;-51
2021/09/02 09:27:58;;;;;;;6.23;5.63;;;25.40;45.40;;;;;;5027296;28;20680;-51
2021/09/02 09:30:28;;;;;;;6.17;5.60;;;25.70;45.90;;;;;;5021038;28;20580;-50
2021/09/02 09:33:03;;;;;;;5.33;4.83;;;26.00;45.80;;;;;;5026340;28;20428;-50
2021/09/02 09:35:39;;;;;;;6.47;5.80;;;26.30;45.00;;;;;;5019468;28;20444;-50
2021/09/02 09:38:22;;;;;;;6.30;5.70;;;26.60;44.90;;;;;;5022123;28;20433;-46
2021/09/02 09:40:50;;;;;;;8.73;5.93;;;26.30;43.60;;;;;;5018275;28;20448;-47
2021/09/02 09:43:24;;;;;;;6.30;5.70;;;26.00;44.10;;;;;;5029876;28;20515;-49
2021/09/02 09:45:55;;;;;;;7.23;6.53;;;25.90;44.50;;;;;;5024655;28;20494;-47
2021/09/02 09:48:20;;;;;;;6.37;5.77;;;26.10;44.90;;;;;;5023681;28;20471;-47
2021/09/02 09:51:14;;;;;;;7.70;6.00;;;26.50;43.90;;;;;;5029973;28;20494;-48
2021/09/02 09:53:53;;;;;;;6.73;5.97;;;26.50;42.80;;;;;;5016707;28;20192;-45
2021/09/02 09:56:24;;;;;;;6.53;5.83;;;25.90;44.10;;;;;;5024450;28;20452;-49
2021/09/02 09:58:52;;;;;;;6.03;5.53;;;25.50;44.70;;;;;;5026909;28;20432;-45
2021/09/02 10:01:18;;;;;;;6.60;6.03;;;25.40;45.70;;;;;;5027498;28;20919;-45
2021/09/02 10:03:50;;;;;;;6.50;5.57;;;26.00;44.90;;;;;;5026053;28;20435;-46
2021/09/02 10:06:18;;;;;;;6.07;5.20;;;26.40;43.80;;;;;;5023942;28;20480;-47
2021/09/02 10:08:44;;;;;;;7.10;5.80;;;26.80;43.60;;;;;;5019175;28;20456;-48
2021/09/02 10:11:13;;;;;;;6.00;5.40;;;27.00;42.40;;;;;;5022573;28;20437;-46
2021/09/02 10:13:40;;;;;;;5.83;5.33;;;26.70;43.10;;;;;;5025228;28;20443;-46
2021/09/02 10:16:07;;;;;;;6.73;6.13;;;27.10;42.50;;;;;;5022861;28;20439;-45
2021/09/02 10:18:37;;;;;;;6.40;5.90;;;27.30;42.40;;;;;;5033962;28;20825;-45
2021/09/02 10:21:05;;;;;;;6.30;5.60;;;27.60;42.00;;;;;;5024367;28;20920;-48
2021/09/02 10:23:31;;;;;;;6.23;5.63;;;27.80;40.80;;;;;;5021728;28;20450;-49
2021/09/02 10:25:57;;;;;;;6.00;5.50;;;28.00;42.40;;;;;;5019022;28;20484;-47
2021/09/02 10:28:34;;;;;;;6.27;5.67;;;28.00;40.70;;;;;;5033535;28;20560;-46
2021/09/02 10:31:03;;;;;;;5.83;5.30;;;28.20;40.90;;;;;;5021624;28;20443;-47
2021/09/02 10:33:32;;;;;;;7.03;6.40;;;28.30;40.70;;;;;;5021351;28;20968;-46
2021/09/02 10:35:58;;;;;;;6.23;5.73;;;28.30;39.80;;;;;;5020219;28;20454;-46
2021/09/02 10:38:52;;;;;;;7.00;6.30;;;28.00;40.30;;;;;;5011792;28;20483;-45
2021/09/02 10:41:44;;;;;;;6.70;6.10;;;28.50;40.40;;;;;;5018224;28;20444;-46
2021/09/02 10:44:22;;;;;;;8.30;6.57;;;28.30;39.40;;;;;;5023750;28;20456;-46
2021/09/02 10:46:52;;;;;;;7.03;6.17;;;28.10;42.00;;;;;;5016209;28;20506;-48
2021/09/02 10:49:21;;;;;;;7.30;5.93;;;28.30;40.90;;;;;;5028473;28;20970;-46
2021/09/02 10:51:54;;;;;;;6.60;5.67;;;28.70;41.50;;;;;;5024213;28;20445;-47
2021/09/02 10:54:30;;;;;;;6.40;5.90;;;28.90;40.30;;;;;;5024793;28;20880;-46
2021/09/02 10:57:01;;;;;;;6.50;5.90;;;29.00;40.30;;;;;;5029480;28;20505;-46
2021/09/02 11:00:01;;;;;;;8.70;5.67;;;28.90;39.90;;;;;;5024112;28;20451;-46
2021/09/02 11:02:27;;;;;;;6.33;5.27;;;28.90;39.70;;;;;;5013011;28;20444;-46
2021/09/02 11:05:02;;;;;;;6.60;5.77;;;29.00;38.90;;;;;;5021062;28;20468;-46
2021/09/02 11:07:43;;;;;;;6.33;5.73;;;29.50;40.20;;;;;;5028588;28;20725;-46
2021/09/02 11:10:18;;;;;;;6.30;5.70;;;29.90;38.90;;;;;;5023561;28;20450;-46
2021/09/02 11:12:46;;;;;;;6.73;5.20;;;29.80;37.70;;;;;;5015690;28;20433;-47
2021/09/02 11:15:21;;;;;;;5.90;5.20;;;29.60;37.80;;;;;;5025510;28;20918;-46
2021/09/02 11:17:51;;;;;;;6.00;5.40;;;29.60;38.00;;;;;;5025307;28;20471;-46
2021/09/02 11:20:22;;;;;;;5.37;4.87;;;29.50;37.20;;;;;;5026737;28;20440;-47
2021/09/02 11:22:48;;;;;;;5.83;5.33;;;29.40;36.20;;;;;;5018299;28;20830;-46
2021/09/02 11:25:14;;;;;;;6.00;4.77;;;29.40;36.90;;;;;;5043606;28;20487;-46
2021/09/02 11:27:41;;;;;;;5.50;5.00;;;29.40;36.70;;;;;;5024110;28;20624;-51
2021/09/02 11:30:17;;;;;;;5.37;4.80;;;29.40;37.60;;;;;;5016197;28;20539;-50
2021/09/02 11:32:45;;;;;;;5.70;5.27;;;29.50;36.20;;;;;;5035354;28;20448;-50
2021/09/02 11:35:11;;;;;;;5.77;5.33;;;29.60;37.00;;;;;;5022740;28;20444;-49
2021/09/02 11:37:43;;;;;;;5.53;5.03;;;29.50;36.60;;;;;;5020416;28;20886;-50
2021/09/02 11:40:20;;;;;;;5.63;5.13;;;29.70;36.20;;;;;;5033838;28;20424;-49
2021/09/02 11:42:46;;;;;;;5.90;5.27;;;29.70;36.80;;;;;;5030754;28;20845;-50
2021/09/02 11:45:16;;;;;;;5.73;5.10;;;29.60;35.70;;;;;;5030949;28;20490;-47
2021/09/02 11:47:41;;;;;;;9.60;5.43;;;29.50;36.80;;;;;;5027557;28;20598;-47
2021/09/02 11:50:07;;;;;;;6.00;5.40;;;29.30;36.40;;;;;;5031701;28;20479;-49
2021/09/02 11:52:37;;;;;;;4.77;4.37;;;29.20;37.50;;;;;;5028623;28;20189;-49
2021/09/02 11:55:04;;;;;;;4.50;4.03;;;28.90;36.80;;;;;;5024251;28;20482;-50
2021/09/02 11:57:29;;;;;;;5.43;5.03;;;28.90;36.50;;;;;;5020775;28;21739;-47
2021/09/02 11:59:55;;;;;;;5.33;4.93;;;28.80;37.10;;;;;;5033441;28;20440;-51
2021/09/02 12:02:20;;;;;;;5.70;4.30;;;28.80;37.20;;;;;;5030040;28;20283;-50
2021/09/02 12:04:50;;;;;;;4.97;4.47;;;29.10;36.60;;;;;;5032628;28;20208;-50
2021/09/02 12:07:16;;;;;;;5.10;4.70;;;29.50;36.50;;;;;;5031226;28;20336;-47
2021/09/02 12:09:46;;;;;;;5.40;4.90;;;29.90;35.90;;;;;;5046512;28;20530;-48
2021/09/02 12:12:11;;;;;;;4.63;4.23;;;29.90;35.50;;;;;;5022462;28;20225;-50
2021/09/02 12:14:43;;;;;;;5.17;4.77;;;29.50;35.30;;;;;;5024450;28;20433;-50
2021/09/02 12:17:11;;;;;;;5.27;4.77;;;29.20;34.80;;;;;;5016038;28;20209;-46
2021/09/02 12:20:03;;;;;;;5.07;4.67;;;28.90;36.90;;;;;;5027322;28;20443;-49
2021/09/02 12:22:37;;;;;;;6.23;5.73;;;29.10;36.90;;;;;;5016793;28;20444;-48
2021/09/02 12:25:15;;;;;;;4.70;3.97;;;28.90;36.10;;;;;;5039717;28;20471;-50
2021/09/02 12:27:54;;;;;;;6.30;5.20;;;29.00;37.60;;;;;;5027343;28;20891;-46
2021/09/02 12:30:42;;;;;;;7.07;4.70;;;29.40;35.40;;;;;;5025787;28;20455;-46
2021/09/02 12:33:16;;;;;;;6.00;5.50;;;29.30;36.50;;;;;;5046366;28;20435;-46
2021/09/02 12:35:44;;;;;;;4.77;4.37;;;29.20;35.60;;;;;;5038744;28;20995;-50
2021/09/02 12:38:29;;;;;;;6.70;5.00;;;29.30;36.10;;;;;;5019593;28;20432;-46
2021/09/02 12:41:16;;;;;;;4.90;4.40;;;29.70;36.00;;;;;;5025291;28;20847;-45
2021/09/02 12:44:00;;;;;;;5.17;4.77;;;29.80;35.10;;;;;;5031908;28;20945;-47
2021/09/02 12:46:26;;;;;;;4.87;4.40;;;30.30;35.70;;;;;;5020932;28;20479;-51
2021/09/02 12:49:12;;;;;;;5.23;4.50;;;30.40;34.50;;;;;;5032333;28;20428;-47